createdAt,value
2019-02-05T00:05:06.835Z,15.48
2019-02-05T00:10:15.409Z,15.49
2019-02-05T00:15:23.044Z,16.71
2019-02-05T00:20:31.332Z,17.20
2019-02-05T00:25:38.964Z,20.70
2019-02-05T00:30:46.127Z,16.48
2019-02-05T00:35:53.745Z,16.88
2019-02-05T00:41:01.404Z,16.72
2019-02-05T00:46:09.015Z,16.97
2019-02-05T00:51:16.725Z,16.73
2019-02-05T00:56:24.361Z,17.68
2019-02-05T01:01:32.013Z,16.96
2019-02-05T01:06:40.201Z,17.93
2019-02-05T01:11:47.853Z,17.15
2019-02-05T01:16:55.481Z,17.64
2019-02-05T01:22:03.193Z,22.53
2019-02-05T01:27:10.900Z,17.33
2019-02-05T01:32:18.653Z,16.20
2019-02-05T01:37:26.336Z,21.69
2019-02-05T01:42:33.981Z,17.17
2019-02-05T01:47:41.606Z,21.47
2019-02-05T01:52:49.272Z,20.16
2019-02-05T01:57:56.901Z,12.98
2019-02-05T02:03:04.610Z,16.20
2019-02-05T02:08:12.248Z,16.98
2019-02-05T02:13:19.794Z,17.27
2019-02-05T02:18:27.352Z,16.83
2019-02-05T02:23:35.154Z,22.43
2019-02-05T02:28:42.807Z,17.63
2019-02-05T02:33:50.476Z,22.36
2019-02-05T02:38:58.101Z,13.79
2019-02-05T02:44:05.766Z,17.41
2019-02-05T02:49:13.377Z,18.18
2019-02-05T02:54:21.014Z,18.71
2019-02-05T02:59:28.682Z,18.74
2019-02-05T03:04:36.399Z,24.76
2019-02-05T03:09:44.009Z,24.97
2019-02-05T03:14:51.733Z,24.65
2019-02-05T03:19:59.369Z,24.01
2019-02-05T03:25:07.080Z,16.47
2019-02-05T03:30:14.701Z,20.06
2019-02-05T03:35:22.387Z,20.82
2019-02-05T03:40:30.061Z,26.30
2019-02-05T03:45:37.714Z,21.01
2019-02-05T03:50:45.361Z,27.32
2019-02-05T03:55:53.046Z,17.22
2019-02-05T04:01:00.686Z,21.02
2019-02-05T04:06:08.417Z,20.03
2019-02-05T04:11:16.033Z,21.04
2019-02-05T04:16:23.727Z,21.59
2019-02-05T04:21:31.410Z,21.98
2019-02-05T04:26:39.048Z,22.35
2019-02-05T04:31:46.690Z,22.75
2019-02-05T04:36:57.281Z,23.04
2019-02-05T04:42:01.566Z,24.03
2019-02-05T04:47:09.207Z,31.88
2019-02-05T04:52:16.837Z,20.01
2019-02-05T04:57:24.485Z,25.08
2019-02-05T05:02:32.140Z,23.24
2019-02-05T05:07:39.796Z,24.14
2019-02-05T05:12:47.424Z,24.07
2019-02-05T05:17:55.089Z,23.96
2019-02-05T05:23:02.731Z,24.62
2019-02-05T05:28:10.557Z,25.07
2019-02-05T05:33:18.072Z,25.73
2019-02-05T05:38:25.786Z,24.95
2019-02-05T05:43:33.468Z,25.97
2019-02-05T05:48:41.114Z,25.69
2019-02-05T05:53:48.769Z,26.21
2019-02-05T05:58:56.028Z,26.14
2019-02-05T06:04:03.649Z,33.65
2019-02-05T06:09:11.288Z,21.18
2019-02-05T06:14:18.998Z,25.41
2019-02-05T06:19:26.639Z,26.81
2019-02-05T06:24:34.314Z,26.87
2019-02-05T06:29:41.964Z,26.88
2019-02-05T06:34:49.599Z,36.49
2019-02-05T06:39:57.326Z,21.97
2019-02-05T06:45:04.961Z,26.55
2019-02-05T06:50:12.720Z,27.65
2019-02-05T06:55:20.352Z,35.54
2019-02-05T07:00:28.012Z,27.86
2019-02-05T07:05:35.699Z,27.73
2019-02-05T07:10:43.478Z,29.25
2019-02-05T07:15:51.175Z,37.42
2019-02-05T07:20:59.242Z,24.69
2019-02-05T07:26:06.926Z,29.30
2019-02-05T07:31:14.759Z,28.66
2019-02-05T07:36:22.644Z,38.63
2019-02-05T07:41:30.408Z,37.46
2019-02-05T07:46:38.087Z,24.23
2019-02-05T07:51:45.771Z,28.96
2019-02-05T07:56:53.063Z,30.35
2019-02-05T08:02:00.760Z,30.21
2019-02-05T08:07:08.552Z,30.79
2019-02-05T08:12:16.216Z,31.59
2019-02-05T08:17:23.925Z,31.60
2019-02-05T08:22:32.282Z,32.46
2019-02-05T08:27:38.843Z,33.20
2019-02-05T08:32:46.537Z,32.13
2019-02-05T08:37:54.235Z,43.91
2019-02-05T08:43:02.014Z,42.77
2019-02-05T08:48:09.761Z,26.95
2019-02-05T08:53:17.470Z,27.54
2019-02-05T08:58:31.007Z,31.77
2019-02-05T09:03:32.367Z,32.61
2019-02-05T09:08:40.041Z,28.08
2019-02-05T09:13:47.771Z,36.96
2019-02-05T09:18:55.463Z,33.23
2019-02-05T09:24:03.198Z,43.73
2019-02-05T09:29:10.895Z,28.56
2019-02-05T09:34:19.272Z,36.66
2019-02-05T09:39:26.964Z,28.05
2019-02-05T09:44:34.689Z,33.67
2019-02-05T09:49:42.398Z,27.94
2019-02-05T09:54:50.122Z,33.12
2019-02-05T09:59:57.891Z,29.68
2019-02-05T10:05:05.628Z,33.77
2019-02-05T10:10:13.337Z,28.36
2019-02-05T10:15:21.018Z,35.29
2019-02-05T10:20:29.647Z,28.05
2019-02-05T10:25:37.388Z,28.21
2019-02-05T10:30:45.154Z,34.07
2019-02-05T10:35:52.848Z,28.84
2019-02-05T10:41:00.540Z,36.99
2019-02-05T10:46:08.211Z,29.29
2019-02-05T10:51:15.976Z,34.45
2019-02-05T10:56:23.719Z,30.85
2019-02-05T11:01:31.535Z,31.07
2019-02-05T11:06:39.332Z,36.04
2019-02-05T11:11:47.227Z,44.77
2019-02-05T11:16:54.988Z,29.32
2019-02-05T11:22:02.871Z,29.42
2019-02-05T11:27:10.634Z,30.13
2019-02-05T11:32:18.395Z,30.81
2019-02-05T11:37:26.095Z,35.59
2019-02-05T11:42:33.851Z,31.03
2019-02-05T11:47:41.563Z,37.41
2019-02-05T11:52:49.347Z,30.85
2019-02-05T11:57:57.035Z,30.32
2019-02-05T12:03:04.776Z,31.12
2019-02-05T12:08:12.455Z,30.60
2019-02-05T12:13:20.183Z,30.59
2019-02-05T12:18:27.886Z,37.17
2019-02-05T12:23:37.582Z,30.81
2019-02-05T12:28:45.272Z,30.34
2019-02-05T12:33:52.972Z,34.96
2019-02-05T12:39:06.671Z,29.26
2019-02-05T12:44:04.360Z,28.56
2019-02-05T12:49:14.938Z,33.73
2019-02-05T12:54:20.740Z,26.76
2019-02-05T12:59:28.803Z,26.66
2019-02-05T13:04:36.489Z,32.21
2019-02-05T13:09:44.182Z,26.41
2019-02-05T13:14:51.867Z,26.22
2019-02-05T13:19:59.647Z,24.99
2019-02-05T13:25:07.360Z,30.62
2019-02-05T13:30:15.150Z,29.25
2019-02-05T13:35:22.826Z,27.28
2019-02-05T13:40:30.585Z,25.32
2019-02-05T13:45:38.251Z,25.64
2019-02-05T13:50:45.974Z,25.18
2019-02-05T13:55:53.691Z,24.55
2019-02-05T14:01:01.381Z,25.43
2019-02-05T14:06:09.132Z,25.01
2019-02-05T14:11:16.831Z,24.43
2019-02-05T14:16:24.613Z,25.19
2019-02-05T14:21:33.614Z,24.36
2019-02-05T14:26:41.295Z,22.31
2019-02-05T14:31:48.967Z,22.12
2019-02-05T14:36:56.713Z,20.44
2019-02-05T14:42:04.391Z,25.07
2019-02-05T14:47:12.478Z,20.80
2019-02-05T14:52:20.176Z,21.88
2019-02-05T14:57:27.887Z,25.69
2019-02-05T15:02:35.708Z,25.75
2019-02-05T15:07:43.423Z,22.14
2019-02-05T15:12:53.409Z,24.54
2019-02-05T15:18:01.260Z,26.13
2019-02-05T15:23:08.956Z,20.73
2019-02-05T15:28:16.646Z,20.91
2019-02-05T15:33:24.391Z,21.46
2019-02-05T15:38:32.069Z,21.42
2019-02-05T15:43:40.575Z,21.56
2019-02-05T15:48:48.246Z,27.41
2019-02-05T15:53:55.946Z,23.16
2019-02-05T15:59:03.623Z,28.60
2019-02-05T16:04:11.327Z,22.41
2019-02-05T16:09:19.032Z,29.29
2019-02-05T16:14:26.286Z,24.15
2019-02-05T16:19:34.002Z,30.06
2019-02-05T16:24:41.847Z,35.44
2019-02-05T16:29:50.661Z,22.62
2019-02-05T16:34:58.380Z,22.39
2019-02-05T16:40:06.064Z,27.47
2019-02-05T16:45:13.761Z,22.29
2019-02-05T16:50:21.470Z,25.34
2019-02-05T16:55:29.296Z,29.01
2019-02-05T17:00:37.000Z,36.91
2019-02-05T17:05:44.710Z,28.50
2019-02-05T17:10:52.402Z,31.97
2019-02-05T17:16:00.119Z,44.35
2019-02-05T17:21:07.831Z,26.96
2019-02-05T17:26:15.540Z,33.68
2019-02-05T17:31:23.240Z,26.66
2019-02-05T17:36:31.611Z,32.30
2019-02-05T17:41:39.339Z,24.92
2019-02-05T17:46:47.067Z,24.16
2019-02-05T17:51:54.843Z,29.62
2019-02-05T17:57:07.319Z,36.32
2019-02-05T18:02:05.017Z,25.74
2019-02-05T18:07:12.710Z,27.95
2019-02-05T18:12:20.419Z,21.14
2019-02-05T18:17:28.211Z,26.44
2019-02-05T18:22:35.944Z,21.79
2019-02-05T18:27:43.688Z,27.26
2019-02-05T18:33:02.753Z,21.63
2019-02-05T18:37:58.633Z,28.58
2019-02-05T18:43:06.346Z,28.46
2019-02-05T18:48:14.144Z,29.94
2019-02-05T18:53:21.966Z,32.68
2019-02-05T18:58:29.664Z,43.56
2019-02-05T19:03:37.356Z,41.31
2019-02-05T19:08:45.130Z,28.43
2019-02-05T19:13:52.843Z,39.78
2019-02-05T19:19:00.608Z,45.85
2019-02-05T19:24:08.277Z,39.60
2019-02-05T19:29:18.966Z,38.09
2019-02-05T19:34:23.250Z,37.24
2019-02-05T19:39:30.983Z,36.24
2019-02-05T19:44:38.662Z,38.00
2019-02-05T19:49:46.507Z,38.80
2019-02-05T19:54:54.168Z,50.82
2019-02-05T20:00:01.906Z,49.29
2019-02-05T21:38:12.568Z,41.19
2019-02-05T21:43:20.373Z,39.40
2019-02-05T21:48:28.052Z,39.11
2019-02-05T21:53:35.778Z,54.47
2019-02-05T21:58:43.515Z,54.39
2019-02-05T22:03:51.230Z,40.43
2019-02-05T22:08:58.958Z,38.84
2019-02-05T22:14:06.188Z,41.06
2019-02-05T22:19:13.968Z,40.89
2019-02-05T22:24:21.717Z,41.76
2019-02-05T22:29:29.499Z,40.76
2019-02-05T22:34:39.269Z,40.16
2019-02-05T22:39:44.427Z,39.23
2019-02-05T22:44:52.155Z,38.71
2019-02-05T22:49:59.887Z,36.90
2019-02-05T22:55:07.704Z,36.73
2019-02-05T23:00:15.461Z,44.92
2019-02-05T23:05:23.631Z,40.66
2019-02-05T23:10:31.332Z,30.96
2019-02-05T23:15:39.179Z,29.80
2019-02-05T23:20:46.864Z,29.58
2019-02-05T23:25:54.616Z,28.55
2019-02-05T23:31:02.245Z,29.11
2019-02-05T23:36:10.025Z,27.54
2019-02-05T23:41:17.716Z,26.32
2019-02-05T23:46:25.445Z,32.32
2019-02-05T23:51:33.129Z,23.67
2019-02-05T23:56:40.840Z,29.22
